sensor_id;sensor_type;location;lat;lon;timestamp;temperature;humidity
68235;DHT22;55052;52.056;5.296;2022-09-09T00:03:43;17.00;81.50
68235;DHT22;55052;52.056;5.296;2022-09-09T00:06:27;17.00;81.40
68235;DHT22;55052;52.056;5.296;2022-09-09T00:09:12;17.00;81.40
68235;DHT22;55052;52.056;5.296;2022-09-09T00:11:52;17.00;81.40
68235;DHT22;55052;52.056;5.296;2022-09-09T00:22:47;16.90;81.20
68235;DHT22;55052;52.056;5.296;2022-09-09T00:25:28;16.90;81.40
68235;DHT22;55052;52.056;5.296;2022-09-09T00:27:56;16.80;81.30
68235;DHT22;55052;52.056;5.296;2022-09-09T00:30:33;16.80;81.30
68235;DHT22;55052;52.056;5.296;2022-09-09T00:33:10;16.80;82.10
68235;DHT22;55052;52.056;5.296;2022-09-09T00:35:45;16.80;81.30
68235;DHT22;55052;52.056;5.296;2022-09-09T00:38:18;16.80;81.40
68235;DHT22;55052;52.056;5.296;2022-09-09T00:40:58;16.70;81.40
68235;DHT22;55052;52.056;5.296;2022-09-09T00:43:31;16.70;81.30
68235;DHT22;55052;52.056;5.296;2022-09-09T00:51:44;16.70;81.40
68235;DHT22;55052;52.056;5.296;2022-09-09T00:54:28;16.60;81.30
68235;DHT22;55052;52.056;5.296;2022-09-09T00:59:48;16.60;81.30
68235;DHT22;55052;52.056;5.296;2022-09-09T01:05:24;16.60;81.30
68235;DHT22;55052;52.056;5.296;2022-09-09T01:07:53;16.50;81.30
68235;DHT22;55052;52.056;5.296;2022-09-09T01:13:05;16.50;81.70
68235;DHT22;55052;52.056;5.296;2022-09-09T01:15:39;16.40;81.70
68235;DHT22;55052;52.056;5.296;2022-09-09T01:18:12;16.40;81.70
68235;DHT22;55052;52.056;5.296;2022-09-09T01:20:46;16.40;81.60
68235;DHT22;55052;52.056;5.296;2022-09-09T01:23:30;16.40;81.60
68235;DHT22;55052;52.056;5.296;2022-09-09T01:28:47;16.40;81.60
68235;DHT22;55052;52.056;5.296;2022-09-09T01:31:21;16.40;81.80
68235;DHT22;55052;52.056;5.296;2022-09-09T01:33:49;16.40;81.80
68235;DHT22;55052;52.056;5.296;2022-09-09T01:36:37;16.30;81.50
68235;DHT22;55052;52.056;5.296;2022-09-09T01:39:05;16.30;81.50
68235;DHT22;55052;52.056;5.296;2022-09-09T01:41:32;16.30;81.50
68235;DHT22;55052;52.056;5.296;2022-09-09T01:43:58;16.30;81.50
68235;DHT22;55052;52.056;5.296;2022-09-09T01:46:25;16.30;81.60
68235;DHT22;55052;52.056;5.296;2022-09-09T01:48:54;16.30;81.40
68235;DHT22;55052;52.056;5.296;2022-09-09T01:51:22;16.30;81.40
68235;DHT22;55052;52.056;5.296;2022-09-09T01:53:49;16.20;81.30
68235;DHT22;55052;52.056;5.296;2022-09-09T01:56:21;16.20;81.40
68235;DHT22;55052;52.056;5.296;2022-09-09T02:02:14;16.20;81.30
68235;DHT22;55052;52.056;5.296;2022-09-09T02:10:58;16.10;81.20
68235;DHT22;55052;52.056;5.296;2022-09-09T02:13:29;16.10;82.00
68235;DHT22;55052;52.056;5.296;2022-09-09T02:16:10;16.00;81.20
68235;DHT22;55052;52.056;5.296;2022-09-09T02:19:06;16.00;81.30
68235;DHT22;55052;52.056;5.296;2022-09-09T02:21:34;16.00;81.20
68235;DHT22;55052;52.056;5.296;2022-09-09T02:24:04;16.00;81.30
68235;DHT22;55052;52.056;5.296;2022-09-09T02:26:32;16.00;81.30
68235;DHT22;55052;52.056;5.296;2022-09-09T02:29:02;15.90;81.30
68235;DHT22;55052;52.056;5.296;2022-09-09T02:31:31;15.90;82.30
68235;DHT22;55052;52.056;5.296;2022-09-09T02:34:03;15.90;81.40
68235;DHT22;55052;52.056;5.296;2022-09-09T02:36:32;15.90;81.40
68235;DHT22;55052;52.056;5.296;2022-09-09T02:39:00;15.80;81.40
68235;DHT22;55052;52.056;5.296;2022-09-09T02:41:35;15.90;81.50
68235;DHT22;55052;52.056;5.296;2022-09-09T02:44:08;15.80;81.50
68235;DHT22;55052;52.056;5.296;2022-09-09T02:49:27;15.80;81.50
68235;DHT22;55052;52.056;5.296;2022-09-09T02:52:04;15.80;81.50
68235;DHT22;55052;52.056;5.296;2022-09-09T02:54:34;15.80;81.60
68235;DHT22;55052;52.056;5.296;2022-09-09T02:57:04;15.80;81.50
68235;DHT22;55052;52.056;5.296;2022-09-09T02:59:33;15.70;81.50
68235;DHT22;55052;52.056;5.296;2022-09-09T03:02:00;15.70;81.70
68235;DHT22;55052;52.056;5.296;2022-09-09T03:04:27;15.70;81.90
68235;DHT22;55052;52.056;5.296;2022-09-09T03:06:54;15.70;81.80
68235;DHT22;55052;52.056;5.296;2022-09-09T03:09:21;15.70;81.90
68235;DHT22;55052;52.056;5.296;2022-09-09T03:11:47;15.70;81.90
68235;DHT22;55052;52.056;5.296;2022-09-09T03:14:15;15.70;82.00
68235;DHT22;55052;52.056;5.296;2022-09-09T03:16:43;15.70;82.00
68235;DHT22;55052;52.056;5.296;2022-09-09T03:19:09;15.70;82.10
68235;DHT22;55052;52.056;5.296;2022-09-09T03:21:36;15.70;82.10
68235;DHT22;55052;52.056;5.296;2022-09-09T03:24:03;15.70;82.20
68235;DHT22;55052;52.056;5.296;2022-09-09T03:26:30;15.60;82.10
68235;DHT22;55052;52.056;5.296;2022-09-09T03:28:58;15.60;82.30
68235;DHT22;55052;52.056;5.296;2022-09-09T03:31:27;15.70;82.40
68235;DHT22;55052;52.056;5.296;2022-09-09T03:33:57;15.60;82.40
68235;DHT22;55052;52.056;5.296;2022-09-09T03:36:26;15.60;83.20
68235;DHT22;55052;52.056;5.296;2022-09-09T03:38:53;15.60;82.30
68235;DHT22;55052;52.056;5.296;2022-09-09T03:41:23;15.60;82.50
68235;DHT22;55052;52.056;5.296;2022-09-09T03:43:54;15.60;82.50
68235;DHT22;55052;52.056;5.296;2022-09-09T03:46:21;15.60;82.50
68235;DHT22;55052;52.056;5.296;2022-09-09T03:48:48;15.60;82.70
68235;DHT22;55052;52.056;5.296;2022-09-09T03:51:15;15.50;82.60
68235;DHT22;55052;52.056;5.296;2022-09-09T03:53:42;15.50;82.60
68235;DHT22;55052;52.056;5.296;2022-09-09T03:56:10;15.50;82.60
68235;DHT22;55052;52.056;5.296;2022-09-09T03:58:37;15.50;82.80
68235;DHT22;55052;52.056;5.296;2022-09-09T04:01:06;15.50;82.80
68235;DHT22;55052;52.056;5.296;2022-09-09T04:03:35;15.50;82.80
68235;DHT22;55052;52.056;5.296;2022-09-09T04:06:03;15.50;82.80
68235;DHT22;55052;52.056;5.296;2022-09-09T04:08:30;15.50;82.90
68235;DHT22;55052;52.056;5.296;2022-09-09T04:11:00;15.50;82.80
68235;DHT22;55052;52.056;5.296;2022-09-09T04:13:35;15.50;82.90
68235;DHT22;55052;52.056;5.296;2022-09-09T04:16:04;15.50;83.00
68235;DHT22;55052;52.056;5.296;2022-09-09T04:18:31;15.50;83.00
68235;DHT22;55052;52.056;5.296;2022-09-09T04:20:58;15.50;83.10
68235;DHT22;55052;52.056;5.296;2022-09-09T04:23:26;15.50;83.10
68235;DHT22;55052;52.056;5.296;2022-09-09T04:25:56;15.50;83.10
68235;DHT22;55052;52.056;5.296;2022-09-09T04:28:25;15.50;83.20
68235;DHT22;55052;52.056;5.296;2022-09-09T04:30:52;15.50;83.30
68235;DHT22;55052;52.056;5.296;2022-09-09T04:33:19;15.50;83.30
68235;DHT22;55052;52.056;5.296;2022-09-09T04:35:47;15.50;83.40
68235;DHT22;55052;52.056;5.296;2022-09-09T04:38:16;15.50;83.40
68235;DHT22;55052;52.056;5.296;2022-09-09T04:40:45;15.50;83.50
68235;DHT22;55052;52.056;5.296;2022-09-09T04:43:13;15.50;83.40
68235;DHT22;55052;52.056;5.296;2022-09-09T04:45:46;15.50;83.60
68235;DHT22;55052;52.056;5.296;2022-09-09T04:48:13;15.50;83.50
68235;DHT22;55052;52.056;5.296;2022-09-09T04:50:40;15.50;83.60
68235;DHT22;55052;52.056;5.296;2022-09-09T04:53:07;15.50;83.60
68235;DHT22;55052;52.056;5.296;2022-09-09T04:55:34;15.50;83.50
68235;DHT22;55052;52.056;5.296;2022-09-09T04:58:05;15.50;83.50
68235;DHT22;55052;52.056;5.296;2022-09-09T05:00:33;15.50;83.60
68235;DHT22;55052;52.056;5.296;2022-09-09T05:03:03;15.50;83.70
68235;DHT22;55052;52.056;5.296;2022-09-09T05:05:31;15.50;83.70
68235;DHT22;55052;52.056;5.296;2022-09-09T05:08:05;15.50;84.00
68235;DHT22;55052;52.056;5.296;2022-09-09T05:10:33;15.40;83.90
68235;DHT22;55052;52.056;5.296;2022-09-09T05:12:59;15.50;83.90
68235;DHT22;55052;52.056;5.296;2022-09-09T05:15:26;15.40;84.00
68235;DHT22;55052;52.056;5.296;2022-09-09T05:17:58;15.50;84.00
68235;DHT22;55052;52.056;5.296;2022-09-09T05:20:26;15.50;84.00
68235;DHT22;55052;52.056;5.296;2022-09-09T05:22:56;15.50;84.00
68235;DHT22;55052;52.056;5.296;2022-09-09T05:25:23;15.50;84.20
68235;DHT22;55052;52.056;5.296;2022-09-09T05:27:53;15.50;84.30
68235;DHT22;55052;52.056;5.296;2022-09-09T05:30:21;15.50;84.30
68235;DHT22;55052;52.056;5.296;2022-09-09T05:32:49;15.50;84.20
68235;DHT22;55052;52.056;5.296;2022-09-09T05:35:16;15.50;84.30
68235;DHT22;55052;52.056;5.296;2022-09-09T05:37:45;15.50;84.30
68235;DHT22;55052;52.056;5.296;2022-09-09T05:40:12;15.50;84.50
68235;DHT22;55052;52.056;5.296;2022-09-09T05:42:39;15.60;84.70
68235;DHT22;55052;52.056;5.296;2022-09-09T05:45:07;15.60;84.70
68235;DHT22;55052;52.056;5.296;2022-09-09T05:47:35;15.60;84.70
68235;DHT22;55052;52.056;5.296;2022-09-09T05:50:04;15.60;84.80
68235;DHT22;55052;52.056;5.296;2022-09-09T05:52:31;15.60;84.80
68235;DHT22;55052;52.056;5.296;2022-09-09T05:54:58;15.70;84.90
68235;DHT22;55052;52.056;5.296;2022-09-09T05:57:26;15.70;85.00
68235;DHT22;55052;52.056;5.296;2022-09-09T05:59:52;15.70;85.00
68235;DHT22;55052;52.056;5.296;2022-09-09T06:02:20;15.80;85.30
68235;DHT22;55052;52.056;5.296;2022-09-09T06:04:47;15.80;85.30
68235;DHT22;55052;52.056;5.296;2022-09-09T06:07:14;15.80;85.40
68235;DHT22;55052;52.056;5.296;2022-09-09T06:09:41;15.90;85.60
68235;DHT22;55052;52.056;5.296;2022-09-09T06:12:08;15.90;85.50
68235;DHT22;55052;52.056;5.296;2022-09-09T06:14:35;15.90;85.70
68235;DHT22;55052;52.056;5.296;2022-09-09T06:17:03;16.00;85.70
68235;DHT22;55052;52.056;5.296;2022-09-09T06:19:30;16.00;85.70
68235;DHT22;55052;52.056;5.296;2022-09-09T06:21:57;16.00;85.80
68235;DHT22;55052;52.056;5.296;2022-09-09T06:24:23;16.00;85.70
68235;DHT22;55052;52.056;5.296;2022-09-09T06:26:50;16.10;85.90
68235;DHT22;55052;52.056;5.296;2022-09-09T06:29:17;16.10;86.10
68235;DHT22;55052;52.056;5.296;2022-09-09T06:31:43;16.20;86.30
68235;DHT22;55052;52.056;5.296;2022-09-09T06:34:10;16.20;86.50
68235;DHT22;55052;52.056;5.296;2022-09-09T06:36:38;16.30;86.60
68235;DHT22;55052;52.056;5.296;2022-09-09T06:39:06;16.30;86.50
68235;DHT22;55052;52.056;5.296;2022-09-09T06:41:40;16.40;86.60
68235;DHT22;55052;52.056;5.296;2022-09-09T06:44:07;16.40;86.80
68235;DHT22;55052;52.056;5.296;2022-09-09T06:46:34;16.50;86.80
68235;DHT22;55052;52.056;5.296;2022-09-09T06:49:02;16.50;86.80
68235;DHT22;55052;52.056;5.296;2022-09-09T06:51:35;16.60;86.90
68235;DHT22;55052;52.056;5.296;2022-09-09T06:54:03;16.60;86.90
68235;DHT22;55052;52.056;5.296;2022-09-09T06:56:34;16.70;86.90
68235;DHT22;55052;52.056;5.296;2022-09-09T06:59:04;16.70;86.90
68235;DHT22;55052;52.056;5.296;2022-09-09T07:01:33;16.70;86.90
68235;DHT22;55052;52.056;5.296;2022-09-09T07:04:01;16.80;87.00
68235;DHT22;55052;52.056;5.296;2022-09-09T07:06:30;16.90;87.00
68235;DHT22;55052;52.056;5.296;2022-09-09T07:09:00;16.90;87.70
68235;DHT22;55052;52.056;5.296;2022-09-09T07:11:33;16.90;86.60
68235;DHT22;55052;52.056;5.296;2022-09-09T07:14:00;17.00;86.40
68235;DHT22;55052;52.056;5.296;2022-09-09T07:16:28;17.00;86.50
68235;DHT22;55052;52.056;5.296;2022-09-09T07:18:56;17.00;86.30
68235;DHT22;55052;52.056;5.296;2022-09-09T07:21:28;17.00;86.20
68235;DHT22;55052;52.056;5.296;2022-09-09T07:23:55;17.10;86.20
68235;DHT22;55052;52.056;5.296;2022-09-09T07:26:25;17.10;86.30
68235;DHT22;55052;52.056;5.296;2022-09-09T07:28:52;17.10;86.30
68235;DHT22;55052;52.056;5.296;2022-09-09T07:31:22;17.20;86.50
68235;DHT22;55052;52.056;5.296;2022-09-09T07:33:50;17.20;86.40
68235;DHT22;55052;52.056;5.296;2022-09-09T07:36:21;17.30;86.40
68235;DHT22;55052;52.056;5.296;2022-09-09T07:39:03;17.30;86.70
68235;DHT22;55052;52.056;5.296;2022-09-09T07:41:34;17.50;86.70
68235;DHT22;55052;52.056;5.296;2022-09-09T07:44:08;17.50;86.60
68235;DHT22;55052;52.056;5.296;2022-09-09T07:46:35;17.60;86.20
68235;DHT22;55052;52.056;5.296;2022-09-09T07:49:03;17.60;85.70
68235;DHT22;55052;52.056;5.296;2022-09-09T07:51:35;17.60;85.00
68235;DHT22;55052;52.056;5.296;2022-09-09T07:54:05;17.60;85.20
68235;DHT22;55052;52.056;5.296;2022-09-09T07:56:33;17.70;85.50
68235;DHT22;55052;52.056;5.296;2022-09-09T07:59:00;17.70;85.30
68235;DHT22;55052;52.056;5.296;2022-09-09T08:01:33;17.70;84.90
68235;DHT22;55052;52.056;5.296;2022-09-09T08:04:06;17.80;84.60
68235;DHT22;55052;52.056;5.296;2022-09-09T08:06:39;17.80;84.40
68235;DHT22;55052;52.056;5.296;2022-09-09T08:09:07;17.80;84.40
68235;DHT22;55052;52.056;5.296;2022-09-09T08:11:35;17.80;84.30
68235;DHT22;55052;52.056;5.296;2022-09-09T08:14:08;17.80;84.20
68235;DHT22;55052;52.056;5.296;2022-09-09T08:16:38;17.80;83.90
68235;DHT22;55052;52.056;5.296;2022-09-09T08:19:05;17.80;83.70
68235;DHT22;55052;52.056;5.296;2022-09-09T08:21:35;17.80;83.50
68235;DHT22;55052;52.056;5.296;2022-09-09T08:24:03;17.80;83.50
68235;DHT22;55052;52.056;5.296;2022-09-09T08:26:39;17.80;83.30
68235;DHT22;55052;52.056;5.296;2022-09-09T08:29:09;17.80;83.40
68235;DHT22;55052;52.056;5.296;2022-09-09T08:31:38;17.90;83.40
68235;DHT22;55052;52.056;5.296;2022-09-09T08:34:06;17.90;84.10
68235;DHT22;55052;52.056;5.296;2022-09-09T08:36:36;17.90;83.40
68235;DHT22;55052;52.056;5.296;2022-09-09T08:39:05;17.90;83.30
68235;DHT22;55052;52.056;5.296;2022-09-09T08:55:35;18.00;83.10
68235;DHT22;55052;52.056;5.296;2022-09-09T08:58:17;18.00;83.00
68235;DHT22;55052;52.056;5.296;2022-09-09T09:06:39;18.00;82.50
68235;DHT22;55052;52.056;5.296;2022-09-09T09:09:26;18.00;82.60
68235;DHT22;55052;52.056;5.296;2022-09-09T09:11:58;18.00;82.60
68235;DHT22;55052;52.056;5.296;2022-09-09T09:14:33;17.90;82.50
68235;DHT22;55052;52.056;5.296;2022-09-09T09:19:33;17.90;82.50
68235;DHT22;55052;52.056;5.296;2022-09-09T09:25:05;18.00;82.60
68235;DHT22;55052;52.056;5.296;2022-09-09T09:27:44;18.00;82.30
68235;DHT22;55052;52.056;5.296;2022-09-09T09:30:21;17.90;82.10
68235;DHT22;55052;52.056;5.296;2022-09-09T09:33:19;18.00;82.30
68235;DHT22;55052;52.056;5.296;2022-09-09T09:35:49;18.00;82.20
68235;DHT22;55052;52.056;5.296;2022-09-09T09:38:23;18.00;81.90
68235;DHT22;55052;52.056;5.296;2022-09-09T09:41:11;18.00;82.00
68235;DHT22;55052;52.056;5.296;2022-09-09T09:43:40;18.00;81.90
68235;DHT22;55052;52.056;5.296;2022-09-09T09:46:20;18.00;82.10
68235;DHT22;55052;52.056;5.296;2022-09-09T09:49:01;18.00;82.30
68235;DHT22;55052;52.056;5.296;2022-09-09T09:51:30;18.10;82.60
68235;DHT22;55052;52.056;5.296;2022-09-09T09:54:18;18.00;82.60
68235;DHT22;55052;52.056;5.296;2022-09-09T09:56:49;18.10;82.80
68235;DHT22;55052;52.056;5.296;2022-09-09T09:59:42;18.10;83.60
68235;DHT22;55052;52.056;5.296;2022-09-09T10:04:43;18.10;82.30
68235;DHT22;55052;52.056;5.296;2022-09-09T10:07:22;18.10;82.30
68235;DHT22;55052;52.056;5.296;2022-09-09T10:09:54;18.10;82.10
68235;DHT22;55052;52.056;5.296;2022-09-09T10:12:56;18.10;82.10
68235;DHT22;55052;52.056;5.296;2022-09-09T10:15:43;18.10;81.80
68235;DHT22;55052;52.056;5.296;2022-09-09T10:21:10;18.10;81.70
68235;DHT22;55052;52.056;5.296;2022-09-09T10:26:37;18.10;82.00
68235;DHT22;55052;52.056;5.296;2022-09-09T10:35:19;18.10;82.50
68235;DHT22;55052;52.056;5.296;2022-09-09T10:38:18;18.10;82.50
68235;DHT22;55052;52.056;5.296;2022-09-09T10:49:06;18.20;83.20
68235;DHT22;55052;52.056;5.296;2022-09-09T10:54:43;18.20;83.80
68235;DHT22;55052;52.056;5.296;2022-09-09T10:59:52;18.50;84.20
68235;DHT22;55052;52.056;5.296;2022-09-09T11:02:29;18.50;84.10
68235;DHT22;55052;52.056;5.296;2022-09-09T11:07:42;18.70;83.70
68235;DHT22;55052;52.056;5.296;2022-09-09T11:12:49;18.80;83.20
68235;DHT22;55052;52.056;5.296;2022-09-09T11:15:20;18.80;84.20
68235;DHT22;55052;52.056;5.296;2022-09-09T11:17:52;18.90;82.90
68235;DHT22;55052;52.056;5.296;2022-09-09T11:20:21;18.80;82.50
68235;DHT22;55052;52.056;5.296;2022-09-09T11:22:52;18.90;82.40
68235;DHT22;55052;52.056;5.296;2022-09-09T11:25:27;18.90;82.10
68235;DHT22;55052;52.056;5.296;2022-09-09T11:33:57;18.90;81.80
68235;DHT22;55052;52.056;5.296;2022-09-09T11:36:31;18.90;81.20
68235;DHT22;55052;52.056;5.296;2022-09-09T11:41:48;18.90;80.80
68235;DHT22;55052;52.056;5.296;2022-09-09T11:44:29;18.90;80.90
68235;DHT22;55052;52.056;5.296;2022-09-09T11:46:56;18.90;81.20
68235;DHT22;55052;52.056;5.296;2022-09-09T11:49:39;18.80;81.30
68235;DHT22;55052;52.056;5.296;2022-09-09T11:52:37;18.80;81.50
68235;DHT22;55052;52.056;5.296;2022-09-09T11:58:00;18.90;82.00
68235;DHT22;55052;52.056;5.296;2022-09-09T12:00:39;18.90;82.10
68235;DHT22;55052;52.056;5.296;2022-09-09T12:03:41;18.90;82.90
68235;DHT22;55052;52.056;5.296;2022-09-09T12:06:16;18.90;82.00
68235;DHT22;55052;52.056;5.296;2022-09-09T12:08:50;18.90;82.10
68235;DHT22;55052;52.056;5.296;2022-09-09T12:11:27;18.90;81.90
68235;DHT22;55052;52.056;5.296;2022-09-09T12:13:57;18.90;81.80
68235;DHT22;55052;52.056;5.296;2022-09-09T12:19:22;18.80;82.00
68235;DHT22;55052;52.056;5.296;2022-09-09T12:22:14;18.80;82.30
68235;DHT22;55052;52.056;5.296;2022-09-09T12:24:54;18.90;82.50
68235;DHT22;55052;52.056;5.296;2022-09-09T12:27:28;18.80;83.00
68235;DHT22;55052;52.056;5.296;2022-09-09T12:30:04;18.80;82.60
68235;DHT22;55052;52.056;5.296;2022-09-09T12:32:34;18.90;82.80
68235;DHT22;55052;52.056;5.296;2022-09-09T12:35:09;18.90;82.70
68235;DHT22;55052;52.056;5.296;2022-09-09T12:37:50;18.90;82.60
68235;DHT22;55052;52.056;5.296;2022-09-09T12:40:29;18.90;82.60
68235;DHT22;55052;52.056;5.296;2022-09-09T12:42:56;18.90;82.40
68235;DHT22;55052;52.056;5.296;2022-09-09T12:45:25;18.90;82.50
68235;DHT22;55052;52.056;5.296;2022-09-09T12:47:59;18.90;82.30
68235;DHT22;55052;52.056;5.296;2022-09-09T12:50:33;19.00;82.30
68235;DHT22;55052;52.056;5.296;2022-09-09T12:53:19;19.00;82.20
68235;DHT22;55052;52.056;5.296;2022-09-09T12:56:04;19.10;82.10
68235;DHT22;55052;52.056;5.296;2022-09-09T12:58:31;19.10;81.90
68235;DHT22;55052;52.056;5.296;2022-09-09T13:01:02;19.20;81.70
68235;DHT22;55052;52.056;5.296;2022-09-09T13:03:42;19.20;81.40
68235;DHT22;55052;52.056;5.296;2022-09-09T13:08:56;19.30;80.80
68235;DHT22;55052;52.056;5.296;2022-09-09T13:11:30;19.30;80.70
68235;DHT22;55052;52.056;5.296;2022-09-09T13:13:58;19.40;80.50
68235;DHT22;55052;52.056;5.296;2022-09-09T13:16:30;19.30;80.40
68235;DHT22;55052;52.056;5.296;2022-09-09T13:19:01;19.30;80.30
68235;DHT22;55052;52.056;5.296;2022-09-09T13:21:34;19.30;80.30
68235;DHT22;55052;52.056;5.296;2022-09-09T13:24:01;19.30;80.30
68235;DHT22;55052;52.056;5.296;2022-09-09T13:26:30;19.30;80.50
68235;DHT22;55052;52.056;5.296;2022-09-09T13:29:15;19.30;81.30
68235;DHT22;55052;52.056;5.296;2022-09-09T13:31:44;19.30;80.50
68235;DHT22;55052;52.056;5.296;2022-09-09T13:34:32;19.30;80.50
68235;DHT22;55052;52.056;5.296;2022-09-09T13:37:01;19.40;80.60
68235;DHT22;55052;52.056;5.296;2022-09-09T13:39:35;19.40;80.70
68235;DHT22;55052;52.056;5.296;2022-09-09T13:42:04;19.30;80.60
68235;DHT22;55052;52.056;5.296;2022-09-09T13:44:37;19.40;80.40
68235;DHT22;55052;52.056;5.296;2022-09-09T13:47:21;19.40;80.30
68235;DHT22;55052;52.056;5.296;2022-09-09T13:49:49;19.40;80.20
68235;DHT22;55052;52.056;5.296;2022-09-09T13:52:18;19.40;80.10
68235;DHT22;55052;52.056;5.296;2022-09-09T13:54:49;19.40;79.70
68235;DHT22;55052;52.056;5.296;2022-09-09T13:57:24;19.40;79.70
68235;DHT22;55052;52.056;5.296;2022-09-09T13:59:52;19.50;79.80
68235;DHT22;55052;52.056;5.296;2022-09-09T14:02:36;19.50;79.70
68235;DHT22;55052;52.056;5.296;2022-09-09T14:05:05;19.50;79.70
68235;DHT22;55052;52.056;5.296;2022-09-09T14:07:32;19.50;79.70
68235;DHT22;55052;52.056;5.296;2022-09-09T14:09:59;19.50;79.80
68235;DHT22;55052;52.056;5.296;2022-09-09T14:12:26;19.50;79.70
68235;DHT22;55052;52.056;5.296;2022-09-09T14:14:53;19.60;79.90
68235;DHT22;55052;52.056;5.296;2022-09-09T14:17:20;19.50;79.90
68235;DHT22;55052;52.056;5.296;2022-09-09T14:19:48;19.50;80.10
68235;DHT22;55052;52.056;5.296;2022-09-09T14:22:15;19.50;80.20
68235;DHT22;55052;52.056;5.296;2022-09-09T14:24:42;19.50;80.30
68235;DHT22;55052;52.056;5.296;2022-09-09T14:27:09;19.40;80.40
68235;DHT22;55052;52.056;5.296;2022-09-09T14:29:35;19.40;80.80
68235;DHT22;55052;52.056;5.296;2022-09-09T14:32:02;19.40;80.90
68235;DHT22;55052;52.056;5.296;2022-09-09T14:34:29;19.40;82.00
68235;DHT22;55052;52.056;5.296;2022-09-09T14:36:56;19.30;81.40
68235;DHT22;55052;52.056;5.296;2022-09-09T14:39:23;19.40;81.70
68235;DHT22;55052;52.056;5.296;2022-09-09T14:41:50;19.40;82.30
68235;DHT22;55052;52.056;5.296;2022-09-09T14:44:16;19.50;82.30
68235;DHT22;55052;52.056;5.296;2022-09-09T14:46:43;19.60;82.30
68235;DHT22;55052;52.056;5.296;2022-09-09T14:49:10;19.60;82.30
68235;DHT22;55052;52.056;5.296;2022-09-09T14:51:37;19.70;82.40
68235;DHT22;55052;52.056;5.296;2022-09-09T14:54:04;19.80;82.40
68235;DHT22;55052;52.056;5.296;2022-09-09T14:56:32;19.90;82.10
68235;DHT22;55052;52.056;5.296;2022-09-09T14:59:02;20.00;81.70
68235;DHT22;55052;52.056;5.296;2022-09-09T15:01:30;20.10;80.90
68235;DHT22;55052;52.056;5.296;2022-09-09T15:04:00;20.20;79.50
68235;DHT22;55052;52.056;5.296;2022-09-09T15:06:28;20.20;78.60
68235;DHT22;55052;52.056;5.296;2022-09-09T15:08:56;20.20;77.90
68235;DHT22;55052;52.056;5.296;2022-09-09T15:11:28;20.10;76.90
68235;DHT22;55052;52.056;5.296;2022-09-09T15:13:56;20.00;76.70
68235;DHT22;55052;52.056;5.296;2022-09-09T15:16:26;19.90;76.80
68235;DHT22;55052;52.056;5.296;2022-09-09T15:18:56;19.90;77.00
68235;DHT22;55052;52.056;5.296;2022-09-09T15:21:25;19.80;77.00
68235;DHT22;55052;52.056;5.296;2022-09-09T15:23:52;19.70;77.00
68235;DHT22;55052;52.056;5.296;2022-09-09T15:26:19;19.70;77.40
68235;DHT22;55052;52.056;5.296;2022-09-09T15:28:48;19.60;77.60
68235;DHT22;55052;52.056;5.296;2022-09-09T15:31:24;19.60;78.50
68235;DHT22;55052;52.056;5.296;2022-09-09T15:33:56;19.60;78.00
68235;DHT22;55052;52.056;5.296;2022-09-09T15:36:38;19.60;78.10
68235;DHT22;55052;52.056;5.296;2022-09-09T15:39:07;19.60;78.30
68235;DHT22;55052;52.056;5.296;2022-09-09T15:41:36;19.60;77.90
68235;DHT22;55052;52.056;5.296;2022-09-09T15:44:03;19.60;77.90
68235;DHT22;55052;52.056;5.296;2022-09-09T15:46:35;19.60;78.00
68235;DHT22;55052;52.056;5.296;2022-09-09T15:49:13;19.60;77.80
68235;DHT22;55052;52.056;5.296;2022-09-09T15:51:42;19.60;77.70
68235;DHT22;55052;52.056;5.296;2022-09-09T15:54:20;19.70;77.30
68235;DHT22;55052;52.056;5.296;2022-09-09T15:56:57;19.70;76.90
68235;DHT22;55052;52.056;5.296;2022-09-09T15:59:25;19.80;77.20
68235;DHT22;55052;52.056;5.296;2022-09-09T16:01:53;19.80;77.10
68235;DHT22;55052;52.056;5.296;2022-09-09T16:04:21;19.80;76.70
68235;DHT22;55052;52.056;5.296;2022-09-09T16:06:53;19.90;77.00
68235;DHT22;55052;52.056;5.296;2022-09-09T16:09:21;20.00;76.10
68235;DHT22;55052;52.056;5.296;2022-09-09T16:11:48;20.00;75.60
68235;DHT22;55052;52.056;5.296;2022-09-09T16:14:15;20.00;75.60
68235;DHT22;55052;52.056;5.296;2022-09-09T16:16:42;20.00;75.10
68235;DHT22;55052;52.056;5.296;2022-09-09T16:19:11;20.00;75.20
68235;DHT22;55052;52.056;5.296;2022-09-09T16:21:44;20.10;75.40
68235;DHT22;55052;52.056;5.296;2022-09-09T16:24:16;20.10;75.30
68235;DHT22;55052;52.056;5.296;2022-09-09T16:26:47;20.20;75.70
68235;DHT22;55052;52.056;5.296;2022-09-09T16:29:15;20.30;75.50
68235;DHT22;55052;52.056;5.296;2022-09-09T16:31:42;20.30;75.30
68235;DHT22;55052;52.056;5.296;2022-09-09T16:34:09;20.20;75.10
68235;DHT22;55052;52.056;5.296;2022-09-09T16:36:38;20.20;75.00
68235;DHT22;55052;52.056;5.296;2022-09-09T16:39:11;20.20;74.80
68235;DHT22;55052;52.056;5.296;2022-09-09T16:41:39;20.20;75.10
68235;DHT22;55052;52.056;5.296;2022-09-09T16:44:08;20.10;75.20
68235;DHT22;55052;52.056;5.296;2022-09-09T16:46:37;20.10;75.30
68235;DHT22;55052;52.056;5.296;2022-09-09T16:49:07;20.10;75.40
68235;DHT22;55052;52.056;5.296;2022-09-09T16:51:40;20.10;75.70
68235;DHT22;55052;52.056;5.296;2022-09-09T16:54:08;20.10;75.50
68235;DHT22;55052;52.056;5.296;2022-09-09T16:56:38;20.00;75.30
68235;DHT22;55052;52.056;5.296;2022-09-09T16:59:13;20.00;75.50
68235;DHT22;55052;52.056;5.296;2022-09-09T17:01:42;20.00;75.60
68235;DHT22;55052;52.056;5.296;2022-09-09T17:04:14;20.00;75.70
68235;DHT22;55052;52.056;5.296;2022-09-09T17:06:46;19.90;75.80
68235;DHT22;55052;52.056;5.296;2022-09-09T17:09:13;19.90;75.80
68235;DHT22;55052;52.056;5.296;2022-09-09T17:11:40;19.90;75.80
68235;DHT22;55052;52.056;5.296;2022-09-09T17:14:10;19.90;76.00
68235;DHT22;55052;52.056;5.296;2022-09-09T17:16:37;19.80;76.10
68235;DHT22;55052;52.056;5.296;2022-09-09T17:19:06;19.80;76.20
68235;DHT22;55052;52.056;5.296;2022-09-09T17:21:36;19.80;76.20
68235;DHT22;55052;52.056;5.296;2022-09-09T17:24:23;19.70;76.00
68235;DHT22;55052;52.056;5.296;2022-09-09T17:26:51;19.70;76.30
68235;DHT22;55052;52.056;5.296;2022-09-09T17:29:19;19.70;76.40
68235;DHT22;55052;52.056;5.296;2022-09-09T17:31:45;19.70;76.50
68235;DHT22;55052;52.056;5.296;2022-09-09T17:34:12;19.70;76.30
68235;DHT22;55052;52.056;5.296;2022-09-09T17:36:39;19.60;76.30
68235;DHT22;55052;52.056;5.296;2022-09-09T17:39:06;19.60;76.40
68235;DHT22;55052;52.056;5.296;2022-09-09T17:41:35;19.60;76.50
68235;DHT22;55052;52.056;5.296;2022-09-09T17:44:02;19.50;76.50
68235;DHT22;55052;52.056;5.296;2022-09-09T17:46:35;19.50;76.40
68235;DHT22;55052;52.056;5.296;2022-09-09T17:49:05;19.40;76.50
68235;DHT22;55052;52.056;5.296;2022-09-09T17:51:33;19.40;76.50